Portada
METAR-TAF:

METAR-TAF

Aeroports :

Juneau, Alaska, Estats Units d'Amèrica

latitud: 58-21-17N, longitud: 134-34-34W, altitud: 6 m

Observació

L'informe es va fer fa 24 minuts, a les 19:53 UTC
Vent 9 kt del Oest
Temperatura 18°C
Humitat 68%
Pressió 1024 hPa
Visibilitat: 16.1 km
Escasses núvols a una alçada de 2800 ft
Núvols disperses a una alçada de 20000 ft

METAR: PAJN 201953Z 28009KT 10SM FEW028 SCT200 18/12 A3024 RMK AO2 SLP241 T01830122

Hora: 12:17 (20:17 UTC)

Pronòstic

L'informe es va fer fa 2 hores i 55 minuts, a les 17:22 UTC
Pronòstic vàlid del 20 a les 18 UTC al 21 a les 18 UTC
Vent 8 kt del Oest/Sud-Oest
Visibilitat: 10 km
Escasses núvols a una alçada de 3500 ft
Núvols disperses a una alçada de 20000 ft

TAF: PAJN 201722Z 2018/2118 25008KT P6SM FEW035 SCT200

Observacions i pronòstics meteorològics de més de 4000 aeroports (METAR i TAF).

Les estacions disponibles són els punts grocs i vermells al mapa.

Posi el ratolí al punt desitjat per veure el nom de l'estació.

Feu clic per veure les observacions i els pronòstics meteorològics.

Per canviar el mapa: feu clic els botons verds amb una creu de color negre per apropar; al botó verd amb un guió per allunyar la imatge; o en les fletxes verdes per a mapes adjacents.


METAR-TAF: